createdAt,value
2019-02-12T00:02:00.545Z,7.87
2019-02-12T00:04:26.489Z,7.77
2019-02-12T00:06:52.639Z,8.20
2019-02-12T00:09:18.461Z,8.73
2019-02-12T00:11:44.417Z,8.40
2019-02-12T00:14:10.299Z,8.17
2019-02-12T00:16:36.263Z,7.40
2019-02-12T00:19:02.174Z,7.37
2019-02-12T00:21:27.999Z,7.60
2019-02-12T00:23:53.843Z,7.40
2019-02-12T00:26:19.670Z,8.00
2019-02-12T00:28:45.659Z,6.97
2019-02-12T00:31:11.496Z,7.10
2019-02-12T00:33:37.354Z,6.70
2019-02-12T00:36:03.276Z,6.27
2019-02-12T00:38:29.134Z,6.70
2019-02-12T00:40:54.979Z,5.93
2019-02-12T00:43:20.830Z,6.80
2019-02-12T00:45:46.779Z,6.73
2019-02-12T00:48:12.647Z,6.57
2019-02-12T00:50:38.477Z,5.93
2019-02-12T00:53:04.333Z,6.57
2019-02-12T00:55:30.148Z,6.67
2019-02-12T00:57:56.015Z,7.57
2019-02-12T01:00:21.863Z,6.93
2019-02-12T01:02:47.704Z,6.47
2019-02-12T01:05:13.662Z,7.50
2019-02-12T01:07:39.502Z,7.07
2019-02-12T01:10:09.221Z,6.80
2019-02-12T01:12:35.668Z,6.57
2019-02-12T01:15:01.508Z,6.70
2019-02-12T01:17:27.348Z,7.53
2019-02-12T01:19:53.218Z,7.93
2019-02-12T01:22:19.032Z,7.77
2019-02-12T01:24:44.955Z,7.83
2019-02-12T01:27:10.818Z,8.17
2019-02-12T01:29:36.634Z,8.13
2019-02-12T01:32:02.471Z,7.70
2019-02-12T01:34:28.322Z,8.50
2019-02-12T01:36:54.171Z,8.67
2019-02-12T01:39:19.988Z,8.83
2019-02-12T01:41:45.841Z,8.03
2019-02-12T01:44:11.672Z,8.80
2019-02-12T01:46:37.501Z,8.83
2019-02-12T01:49:03.331Z,8.80
2019-02-12T01:51:34.952Z,8.67
2019-02-12T01:53:56.892Z,8.03
2019-02-12T01:56:22.759Z,8.73
2019-02-12T01:58:48.617Z,8.83
2019-02-12T02:01:14.484Z,8.97
2019-02-12T02:03:40.299Z,9.07
2019-02-12T02:06:06.160Z,9.13
2019-02-12T02:08:32.094Z,8.37
2019-02-12T02:10:57.938Z,8.80
2019-02-12T02:13:23.777Z,7.70
2019-02-12T02:15:49.594Z,8.60
2019-02-12T02:18:15.441Z,8.77
2019-02-12T02:20:41.266Z,8.43
2019-02-12T02:23:07.144Z,8.00
2019-02-12T02:25:32.994Z,9.30
2019-02-12T02:27:58.809Z,9.67
2019-02-12T02:30:24.617Z,9.70
2019-02-12T02:32:50.499Z,9.10
2019-02-12T02:35:16.309Z,9.63
2019-02-12T02:37:42.125Z,9.63
2019-02-12T02:40:09.368Z,9.47
2019-02-12T02:42:35.177Z,9.93
2019-02-12T02:45:01.027Z,9.00
2019-02-12T02:47:26.961Z,10.60
2019-02-12T02:49:52.811Z,10.10
2019-02-12T02:52:18.665Z,9.50
2019-02-12T02:54:44.506Z,10.40
2019-02-12T02:57:10.354Z,10.73
2019-02-12T02:59:36.182Z,10.50
2019-02-12T03:02:02.027Z,11.00
2019-02-12T03:04:27.875Z,10.53
2019-02-12T03:06:53.697Z,10.77
2019-02-12T03:09:19.546Z,10.53
2019-02-12T03:11:45.363Z,10.73
2019-02-12T03:14:11.326Z,12.83
2019-02-12T03:16:37.144Z,13.17
2019-02-12T03:19:03.115Z,12.20
2019-02-12T03:21:29.048Z,12.07
2019-02-12T03:23:54.862Z,12.37
2019-02-12T03:26:20.693Z,11.97
2019-02-12T03:28:46.508Z,11.80
2019-02-12T03:31:12.356Z,11.77
2019-02-12T03:33:38.160Z,12.10
2019-02-12T03:36:04.003Z,12.17
2019-02-12T03:38:29.818Z,11.53
2019-02-12T03:40:55.797Z,11.80
2019-02-12T03:43:21.622Z,13.30
2019-02-12T03:45:47.476Z,14.83
2019-02-12T03:48:13.305Z,14.43
2019-02-12T03:50:39.165Z,16.03
2019-02-12T03:53:04.981Z,16.00
2019-02-12T03:55:30.923Z,14.47
2019-02-12T03:57:56.744Z,14.23
2019-02-12T04:00:22.693Z,15.73
2019-02-12T04:03:00.546Z,17.23
2019-02-12T04:05:26.474Z,19.00
2019-02-12T04:07:54.200Z,19.03
2019-02-12T04:10:20.040Z,18.13
2019-02-12T04:12:45.972Z,18.23
2019-02-12T04:15:12.008Z,16.23
2019-02-12T04:17:37.865Z,16.07
2019-02-12T04:20:03.800Z,17.33
2019-02-12T04:22:29.700Z,18.57
2019-02-12T04:24:55.561Z,17.70
2019-02-12T04:27:21.409Z,17.97
2019-02-12T04:29:47.219Z,17.83
2019-02-12T04:32:13.057Z,19.23
2019-02-12T04:34:38.868Z,17.43
2019-02-12T04:37:04.728Z,18.70
2019-02-12T04:39:30.553Z,19.03
2019-02-12T04:41:56.444Z,19.30
2019-02-12T04:44:22.222Z,19.03
2019-02-12T04:46:48.040Z,19.73
2019-02-12T04:49:14.060Z,21.60
2019-02-12T04:51:39.876Z,21.37
2019-02-12T04:54:05.716Z,20.80
2019-02-12T04:56:31.630Z,21.07
2019-02-12T04:58:57.463Z,22.63
2019-02-12T05:01:23.312Z,22.73
2019-02-12T05:03:49.151Z,24.97
2019-02-12T05:06:14.975Z,24.13
2019-02-12T05:09:04.225Z,24.77
2019-02-12T05:11:30.039Z,24.00
2019-02-12T05:13:55.874Z,25.20
2019-02-12T05:16:21.694Z,25.77
2019-02-12T05:18:47.534Z,25.57
2019-02-12T05:21:13.754Z,26.73
2019-02-12T05:23:39.639Z,27.70
2019-02-12T05:26:05.452Z,26.83
2019-02-12T05:28:31.284Z,26.53
2019-02-12T05:30:57.133Z,26.50
2019-02-12T05:33:25.576Z,27.97
2019-02-12T05:35:51.384Z,28.20
2019-02-12T05:38:17.329Z,27.07
2019-02-12T05:40:43.160Z,27.47
2019-02-12T05:43:09.022Z,28.43
2019-02-12T05:45:34.901Z,29.37
2019-02-12T05:48:00.739Z,31.50
2019-02-12T05:50:26.586Z,35.70
2019-02-12T05:52:54.777Z,33.30
2019-02-12T05:55:20.340Z,29.87
2019-02-12T05:57:46.177Z,30.33
2019-02-12T06:00:16.166Z,30.57
2019-02-12T06:02:42.036Z,29.37
2019-02-12T06:05:07.890Z,30.20
2019-02-12T06:07:33.707Z,29.30
2019-02-12T06:09:59.556Z,29.03
2019-02-12T06:12:25.381Z,29.27
2019-02-12T06:14:51.223Z,28.83
2019-02-12T06:17:17.065Z,29.97
2019-02-12T06:19:43.011Z,30.47
2019-02-12T06:22:09.055Z,29.53
2019-02-12T06:24:34.872Z,25.10
2019-02-12T06:27:00.742Z,25.13
2019-02-12T06:29:26.852Z,25.63
2019-02-12T06:31:52.711Z,24.27
2019-02-12T06:34:18.546Z,24.33
2019-02-12T06:36:44.484Z,25.27
2019-02-12T06:39:10.301Z,25.07
2019-02-12T06:41:36.561Z,24.90
2019-02-12T06:44:02.499Z,25.73
2019-02-12T06:46:29.528Z,25.47
2019-02-12T06:48:55.788Z,22.67
2019-02-12T06:51:21.645Z,22.27
2019-02-12T06:53:47.471Z,22.93
2019-02-12T06:56:13.316Z,27.00
2019-02-12T06:58:39.167Z,27.53
2019-02-12T07:01:05.061Z,27.20
2019-02-12T07:03:37.286Z,26.53
2019-02-12T07:06:13.024Z,26.67
2019-02-12T07:08:45.433Z,26.63
2019-02-12T07:11:47.187Z,25.70
2019-02-12T07:14:33.570Z,23.87
2019-02-12T07:17:12.370Z,24.37
2019-02-12T07:19:51.069Z,24.03
2019-02-12T07:22:37.515Z,23.87
2019-02-12T07:25:07.148Z,22.93
2019-02-12T07:27:51.649Z,25.40
2019-02-12T07:30:42.604Z,24.40
2019-02-12T07:33:15.075Z,22.60
2019-02-12T07:35:53.658Z,23.80
2019-02-12T07:38:26.087Z,22.77
2019-02-12T07:40:55.722Z,21.67
2019-02-12T07:43:28.121Z,20.67
2019-02-12T07:46:03.615Z,20.60
2019-02-12T07:48:39.341Z,20.87
2019-02-12T07:51:18.061Z,21.57
2019-02-12T07:54:02.724Z,19.37
2019-02-12T07:56:37.948Z,19.70
2019-02-12T07:59:16.059Z,18.90
2019-02-12T08:01:57.997Z,19.20
2019-02-12T08:04:52.040Z,19.20
2019-02-12T08:07:33.398Z,17.60
2019-02-12T08:10:32.188Z,24.80
2019-02-12T08:13:01.827Z,29.40
2019-02-12T08:15:31.501Z,28.87
2019-02-12T08:18:01.154Z,22.10
2019-02-12T08:20:36.471Z,20.53
2019-02-12T08:23:12.283Z,19.67
2019-02-12T08:25:50.646Z,23.67
2019-02-12T08:28:23.269Z,17.37
2019-02-12T08:31:04.528Z,16.63
2019-02-12T08:33:37.268Z,17.70
2019-02-12T08:36:10.093Z,19.87
2019-02-12T08:38:48.898Z,19.60
2019-02-12T08:41:50.399Z,20.33
2019-02-12T08:44:35.293Z,18.80
2019-02-12T08:47:19.895Z,20.27
2019-02-12T08:49:55.562Z,21.73
2019-02-12T08:52:54.031Z,21.37
2019-02-12T08:55:38.248Z,21.57
2019-02-12T08:58:10.896Z,22.40
2019-02-12T09:00:43.763Z,18.17
2019-02-12T09:03:34.902Z,17.40
2019-02-12T09:06:13.556Z,16.83
2019-02-12T09:08:45.792Z,17.60
2019-02-12T09:11:24.227Z,17.07
2019-02-12T09:14:09.217Z,16.77
2019-02-12T09:16:57.485Z,15.77
2019-02-12T09:19:30.374Z,15.40
2019-02-12T09:22:16.958Z,15.50
2019-02-12T09:25:11.163Z,14.97
2019-02-12T09:27:55.796Z,15.60
2019-02-12T09:30:28.443Z,16.80
2019-02-12T09:33:06.999Z,15.43
2019-02-12T09:35:42.423Z,17.93
2019-02-12T09:38:39.359Z,15.97
2019-02-12T09:41:27.972Z,15.90
2019-02-12T09:44:09.499Z,14.87
2019-02-12T09:46:42.172Z,15.17
2019-02-12T09:49:38.534Z,15.57
2019-02-12T09:52:25.061Z,15.83
2019-02-12T09:55:03.884Z,15.77
2019-02-12T09:57:33.540Z,15.30
2019-02-12T10:00:15.148Z,16.10
2019-02-12T10:02:56.826Z,15.60
2019-02-12T10:05:49.277Z,16.77
2019-02-12T10:08:24.681Z,16.73
2019-02-12T10:11:12.557Z,14.70
2019-02-12T10:13:48.379Z,15.17
2019-02-12T10:16:36.112Z,14.90
2019-02-12T10:19:08.805Z,14.77
2019-02-12T10:21:58.224Z,14.37
2019-02-12T10:24:27.813Z,14.77
2019-02-12T10:27:12.885Z,14.47
2019-02-12T10:29:57.599Z,13.73
2019-02-12T10:32:23.228Z,15.03
2019-02-12T10:34:49.068Z,14.80
2019-02-12T10:37:15.013Z,14.57
2019-02-12T10:39:40.857Z,12.97
2019-02-12T10:42:06.799Z,13.50
2019-02-12T10:44:34.570Z,21.13
2019-02-12T10:47:00.493Z,13.63
2019-02-12T10:49:26.393Z,13.33
2019-02-12T10:51:52.383Z,14.07
2019-02-12T10:54:18.206Z,16.17
2019-02-12T10:56:44.063Z,14.87
2019-02-12T10:59:09.889Z,12.63
2019-02-12T11:01:35.851Z,10.40
2019-02-12T11:04:01.715Z,10.60
2019-02-12T11:06:27.591Z,10.63
2019-02-12T11:08:53.408Z,9.10
2019-02-12T11:11:19.385Z,9.87
2019-02-12T11:13:45.244Z,10.57
2019-02-12T11:16:11.141Z,9.73
2019-02-12T11:18:37.107Z,10.53
2019-02-12T11:21:03.177Z,10.73
2019-02-12T11:23:29.008Z,9.97
2019-02-12T11:25:54.874Z,10.00
2019-02-12T11:28:20.710Z,11.57
2019-02-12T11:30:46.540Z,10.50
2019-02-12T11:33:12.392Z,10.87
2019-02-12T11:35:38.311Z,9.87
2019-02-12T11:38:04.179Z,9.40
2019-02-12T11:40:30.115Z,10.43
2019-02-12T11:42:56.051Z,10.17
2019-02-12T11:45:21.971Z,9.70
2019-02-12T11:47:47.807Z,10.60
2019-02-12T11:50:13.716Z,10.13
2019-02-12T11:52:39.942Z,10.57
2019-02-12T11:55:10.967Z,8.97
2019-02-12T11:57:36.836Z,9.40
2019-02-12T12:00:05.900Z,9.00
2019-02-12T12:02:32.626Z,9.33
2019-02-12T12:04:58.659Z,8.77
2019-02-12T12:07:24.510Z,9.53
2019-02-12T12:09:50.352Z,9.30
2019-02-12T12:12:16.174Z,9.10
2019-02-12T12:14:42.012Z,8.17
2019-02-12T12:17:07.853Z,8.20
2019-02-12T12:19:33.849Z,8.83
2019-02-12T12:21:59.703Z,8.73
2019-02-12T12:24:25.584Z,8.47
2019-02-12T12:26:51.395Z,8.70
2019-02-12T12:29:17.232Z,8.23
2019-02-12T12:31:43.043Z,8.43
2019-02-12T12:34:08.998Z,8.47
2019-02-12T12:36:34.815Z,7.80
2019-02-12T12:39:00.675Z,7.63
2019-02-12T12:41:26.494Z,8.10
2019-02-12T12:43:52.366Z,8.07
2019-02-12T12:46:18.217Z,8.43
2019-02-12T12:48:44.078Z,8.10
2019-02-12T12:51:09.921Z,7.87
2019-02-12T12:53:35.772Z,8.17
2019-02-12T12:56:01.639Z,8.03
2019-02-12T12:58:27.960Z,7.90
2019-02-12T13:00:53.983Z,7.73
2019-02-12T13:03:19.829Z,7.33
2019-02-12T13:05:45.780Z,7.60
2019-02-12T13:08:11.600Z,6.87
2019-02-12T13:10:37.453Z,6.53
2019-02-12T13:13:04.787Z,6.47
2019-02-12T13:15:30.952Z,6.30
2019-02-12T13:17:56.779Z,6.60
2019-02-12T13:20:22.650Z,6.87
2019-02-12T13:22:48.519Z,6.40
2019-02-12T13:25:14.380Z,6.27
2019-02-12T13:27:40.213Z,6.87
2019-02-12T13:30:09.881Z,6.60
2019-02-12T13:32:35.711Z,6.57
2019-02-12T13:35:02.081Z,6.30
2019-02-12T13:37:27.933Z,5.77
2019-02-12T13:39:53.759Z,5.43
2019-02-12T13:42:19.615Z,6.10
2019-02-12T13:44:45.470Z,7.10
2019-02-12T13:47:11.359Z,5.57
2019-02-12T13:49:37.202Z,6.43
2019-02-12T13:52:03.182Z,6.60
2019-02-12T13:54:29.023Z,5.33
2019-02-12T13:56:54.856Z,5.30
2019-02-12T13:59:20.682Z,5.37
2019-02-12T14:01:46.619Z,5.10
2019-02-12T14:04:13.051Z,4.80
2019-02-12T14:06:41.647Z,5.43
2019-02-12T14:09:08.117Z,5.20
2019-02-12T14:11:33.987Z,5.27
2019-02-12T14:13:59.843Z,5.07
2019-02-12T14:16:25.667Z,5.07
2019-02-12T14:18:51.534Z,5.03
2019-02-12T14:21:17.420Z,5.70
2019-02-12T14:23:43.257Z,4.83
2019-02-12T14:26:09.084Z,5.00
2019-02-12T14:28:34.933Z,5.30
2019-02-12T14:31:00.768Z,5.07
2019-02-12T14:33:26.621Z,5.47
2019-02-12T14:35:52.564Z,4.83
2019-02-12T14:38:18.381Z,5.37
2019-02-12T14:40:44.440Z,5.33
2019-02-12T14:43:14.053Z,5.57
2019-02-12T14:45:38.143Z,5.27
2019-02-12T14:48:04.001Z,5.30
2019-02-12T14:50:29.935Z,5.57
2019-02-12T14:52:55.923Z,5.90
2019-02-12T14:55:21.812Z,5.63
2019-02-12T14:57:47.654Z,5.80
2019-02-12T15:00:18.192Z,6.50
2019-02-12T15:02:44.165Z,7.50
2019-02-12T15:05:10.425Z,6.57
2019-02-12T15:07:36.359Z,6.10
2019-02-12T15:10:04.931Z,6.37
2019-02-12T15:12:30.773Z,6.20
2019-02-12T15:14:56.736Z,6.20
2019-02-12T15:17:22.662Z,5.40
2019-02-12T15:19:48.532Z,7.60
2019-02-12T15:22:14.367Z,6.50
2019-02-12T15:24:40.207Z,5.27
2019-02-12T15:27:06.035Z,4.97
2019-02-12T15:29:31.929Z,5.70
2019-02-12T15:31:57.780Z,5.50
2019-02-12T15:34:23.624Z,5.47
2019-02-12T15:36:49.466Z,5.47
2019-02-12T15:39:15.329Z,6.30
2019-02-12T15:41:41.184Z,6.27
2019-02-12T15:44:07.063Z,6.33
2019-02-12T15:46:32.978Z,6.20
2019-02-12T15:48:58.913Z,6.17
2019-02-12T15:51:24.804Z,6.93
2019-02-12T15:53:50.635Z,6.73
2019-02-12T15:56:16.688Z,6.30
2019-02-12T15:58:42.635Z,6.83
2019-02-12T16:01:08.492Z,6.90
2019-02-12T16:03:36.051Z,7.50
2019-02-12T16:06:02.249Z,7.60
2019-02-12T16:08:30.006Z,8.90
2019-02-12T16:10:57.111Z,8.03
2019-02-12T16:13:23.735Z,7.93
2019-02-12T16:15:53.368Z,7.80
2019-02-12T16:18:21.390Z,8.13
2019-02-12T16:20:47.241Z,8.33
2019-02-12T16:23:16.561Z,8.60
2019-02-12T16:25:59.341Z,11.43
2019-02-12T16:28:24.704Z,10.13
2019-02-12T16:30:50.591Z,8.53
2019-02-12T16:33:19.315Z,8.30
2019-02-12T16:35:45.291Z,9.43
2019-02-12T16:38:11.491Z,8.93
2019-02-12T16:40:41.736Z,9.90
2019-02-12T16:43:12.498Z,9.67
2019-02-12T16:45:50.075Z,9.77
2019-02-12T16:48:29.129Z,10.10
2019-02-12T16:50:55.097Z,10.77
2019-02-12T16:53:27.753Z,11.10
2019-02-12T16:55:52.590Z,10.27
2019-02-12T16:58:25.896Z,9.93
2019-02-12T17:00:53.724Z,9.87
2019-02-12T17:03:19.738Z,11.80
2019-02-12T17:05:47.506Z,10.27
2019-02-12T17:08:15.271Z,11.23
2019-02-12T17:10:44.231Z,11.03
2019-02-12T17:13:14.236Z,10.60
2019-02-12T17:15:46.283Z,10.90
2019-02-12T17:18:12.683Z,10.37
2019-02-12T17:20:38.632Z,10.73
2019-02-12T17:23:09.185Z,10.73
2019-02-12T17:25:35.139Z,10.70
2019-02-12T17:28:01.456Z,10.40
2019-02-12T17:30:29.040Z,10.17
2019-02-12T17:32:54.997Z,11.33
2019-02-12T17:35:20.865Z,12.00
2019-02-12T17:37:50.069Z,11.47
2019-02-12T17:40:17.843Z,11.63
2019-02-12T17:42:43.830Z,12.37
2019-02-12T17:45:14.569Z,11.67
2019-02-12T17:47:40.509Z,11.90
2019-02-12T17:50:08.783Z,12.73
2019-02-12T17:52:34.621Z,13.87
2019-02-12T17:55:01.624Z,14.27
2019-02-12T17:57:27.578Z,12.93
2019-02-12T17:59:54.386Z,14.10
2019-02-12T18:02:20.253Z,13.97
2019-02-12T18:04:46.142Z,15.17
2019-02-12T18:07:12.085Z,15.53
2019-02-12T18:09:38.096Z,15.60
2019-02-12T18:12:04.040Z,15.50
2019-02-12T18:14:29.873Z,15.93
2019-02-12T18:16:55.764Z,14.73
2019-02-12T18:19:21.691Z,14.27
2019-02-12T18:21:47.665Z,14.70
2019-02-12T18:24:13.526Z,14.07
2019-02-12T18:26:39.404Z,14.40
2019-02-12T18:29:05.280Z,14.47
2019-02-12T18:31:31.149Z,15.27
2019-02-12T18:33:57.006Z,14.73
2019-02-12T18:36:22.926Z,14.77
2019-02-12T18:38:48.813Z,17.03
2019-02-12T18:41:14.820Z,15.80
2019-02-12T18:43:40.632Z,17.20
2019-02-12T18:46:06.590Z,17.23
2019-02-12T18:48:32.459Z,19.70
2019-02-12T18:50:58.493Z,21.77
2019-02-12T18:53:24.446Z,20.33
2019-02-12T18:55:50.495Z,28.00
2019-02-12T18:58:16.612Z,25.93
2019-02-12T19:00:42.565Z,23.83
2019-02-12T19:03:08.944Z,23.17
2019-02-12T19:05:35.136Z,20.83
2019-02-12T19:08:01.210Z,26.63
2019-02-12T19:10:27.108Z,22.27
2019-02-12T19:12:53.875Z,22.20
2019-02-12T19:15:20.946Z,21.40
2019-02-12T19:17:58.012Z,20.97
2019-02-12T19:20:23.991Z,21.50
2019-02-12T19:22:50.165Z,16.13
2019-02-12T19:25:16.037Z,17.93
2019-02-12T19:27:42.298Z,16.73
2019-02-12T19:30:13.972Z,17.90
2019-02-12T19:32:40.064Z,18.90
2019-02-12T19:35:08.596Z,16.40
2019-02-12T19:37:34.616Z,15.93
2019-02-12T19:40:00.502Z,14.93
2019-02-12T19:42:26.465Z,15.43
2019-02-12T19:44:52.668Z,15.27
2019-02-12T19:47:18.522Z,18.60
2019-02-12T19:49:44.527Z,15.97
2019-02-12T19:52:10.466Z,16.37
2019-02-12T19:54:36.669Z,17.20
2019-02-12T19:57:02.603Z,16.87
2019-02-12T19:59:28.785Z,16.80
2019-02-12T20:01:55.178Z,17.10
2019-02-12T20:04:21.190Z,16.53
2019-02-12T20:06:47.266Z,17.30
2019-02-12T20:09:16.472Z,17.80
2019-02-12T20:11:42.438Z,20.07
2019-02-12T20:14:08.351Z,16.57
2019-02-12T20:16:34.314Z,20.23
2019-02-12T20:19:00.482Z,25.37
2019-02-12T20:21:27.324Z,23.17
2019-02-12T20:23:53.288Z,23.30
2019-02-12T20:26:20.043Z,19.03
2019-02-12T20:28:45.933Z,17.17
2019-02-12T20:31:12.263Z,16.50
2019-02-12T20:33:38.111Z,17.10
2019-02-12T20:36:03.986Z,16.20
2019-02-12T20:38:29.836Z,16.87
2019-02-12T20:40:55.911Z,15.80
2019-02-12T20:43:21.953Z,15.43
2019-02-12T20:45:47.838Z,15.27
2019-02-12T20:48:13.647Z,14.17
2019-02-12T20:50:39.743Z,14.03
2019-02-12T20:53:05.703Z,13.90
2019-02-12T20:55:31.580Z,13.63
2019-02-12T20:57:57.478Z,14.40
2019-02-12T21:00:23.546Z,13.80
2019-02-12T21:02:49.598Z,13.70
2019-02-12T21:05:17.662Z,14.30
2019-02-12T21:07:47.802Z,14.43
2019-02-12T21:10:18.925Z,14.30
2019-02-12T21:12:44.890Z,13.77
2019-02-12T21:15:17.072Z,14.53
2019-02-12T21:17:42.936Z,14.37
2019-02-12T21:20:10.592Z,15.93
2019-02-12T21:22:38.057Z,15.70
2019-02-12T21:25:07.684Z,16.17
2019-02-12T21:27:33.662Z,16.93
2019-02-12T21:29:59.483Z,15.60
2019-02-12T21:32:25.396Z,15.43
2019-02-12T21:34:51.507Z,15.97
2019-02-12T21:37:17.402Z,15.53
2019-02-12T21:39:43.229Z,16.10
2019-02-12T21:42:10.059Z,16.27
2019-02-12T21:44:35.922Z,15.00
2019-02-12T21:47:01.811Z,15.47
2019-02-12T21:49:27.664Z,14.23
2019-02-12T21:51:54.164Z,14.27
2019-02-12T21:54:20.037Z,13.80
2019-02-12T21:56:46.000Z,13.90
2019-02-12T21:59:13.019Z,14.80
2019-02-12T22:01:38.863Z,14.30
2019-02-12T22:04:04.779Z,14.37
2019-02-12T22:06:30.691Z,14.07
2019-02-12T22:08:56.568Z,14.47
2019-02-12T22:11:22.422Z,14.43
2019-02-12T22:13:48.288Z,15.13
2019-02-12T22:16:14.123Z,14.43
2019-02-12T22:18:39.993Z,14.33
2019-02-12T22:21:05.835Z,14.03
2019-02-12T22:23:31.703Z,13.57
2019-02-12T22:25:57.540Z,14.53
2019-02-12T22:28:23.387Z,13.97
2019-02-12T22:30:49.256Z,14.60
2019-02-12T22:33:15.085Z,14.87
2019-02-12T22:35:40.928Z,14.13
2019-02-12T22:38:06.749Z,14.80
2019-02-12T22:40:32.608Z,15.23
2019-02-12T22:42:58.567Z,14.37
2019-02-12T22:45:26.150Z,15.23
2019-02-12T22:47:52.057Z,14.90
2019-02-12T22:50:18.063Z,14.97
2019-02-12T22:52:43.868Z,13.47
2019-02-12T22:55:09.796Z,14.70
2019-02-12T22:57:35.641Z,14.00
2019-02-12T23:00:04.171Z,14.30
2019-02-12T23:02:30.122Z,14.63
2019-02-12T23:04:55.987Z,13.83
2019-02-12T23:07:21.837Z,13.20
2019-02-12T23:09:48.098Z,13.53
2019-02-12T23:12:14.163Z,13.00
2019-02-12T23:14:39.986Z,12.97
2019-02-12T23:17:05.935Z,13.37
2019-02-12T23:19:31.802Z,13.07
2019-02-12T23:21:58.318Z,12.67
2019-02-12T23:24:24.157Z,12.93
2019-02-12T23:26:49.990Z,11.90
2019-02-12T23:29:15.854Z,11.93
2019-02-12T23:31:41.822Z,12.17
2019-02-12T23:34:07.663Z,12.47
2019-02-12T23:36:33.522Z,12.67
2019-02-12T23:38:59.360Z,14.20
2019-02-12T23:41:25.216Z,12.77
2019-02-12T23:43:51.087Z,13.23
2019-02-12T23:46:16.938Z,13.27
2019-02-12T23:48:42.860Z,13.00
2019-02-12T23:51:08.698Z,12.57
2019-02-12T23:53:34.574Z,12.50
2019-02-12T23:56:00.384Z,13.33
2019-02-12T23:58:26.236Z,14.27
